sensor_id;sensor_type;location;lat;lon;timestamp;pressure;altitude;pressure_sealevel;temperature;humidity
53715;BME280;39608;55.630;37.864;2023-02-26T00:00:27;97194.09;;;2.54;71.33
53715;BME280;39608;55.630;37.864;2023-02-26T00:05:29;97163.38;;;2.51;71.10
53715;BME280;39608;55.630;37.864;2023-02-26T00:10:33;97154.94;;;2.58;71.56
53715;BME280;39608;55.630;37.864;2023-02-26T00:15:36;97147.31;;;2.51;71.81
53715;BME280;39608;55.630;37.864;2023-02-26T00:20:38;97131.56;;;2.50;71.71
53715;BME280;39608;55.630;37.864;2023-02-26T00:25:41;97121.66;;;2.50;71.59
53715;BME280;39608;55.630;37.864;2023-02-26T00:30:44;97107.78;;;2.48;71.77
53715;BME280;39608;55.630;37.864;2023-02-26T00:35:46;97093.34;;;2.49;71.63
53715;BME280;39608;55.630;37.864;2023-02-26T00:40:50;97081.44;;;2.42;71.82
53715;BME280;39608;55.630;37.864;2023-02-26T00:46:02;97064.72;;;2.36;71.91
53715;BME280;39608;55.630;37.864;2023-02-26T00:51:18;97023.97;;;2.16;71.88
53715;BME280;39608;55.630;37.864;2023-02-26T00:56:23;97034.19;;;2.14;71.94
53715;BME280;39608;55.630;37.864;2023-02-26T01:01:25;97024.00;;;2.02;71.78
53715;BME280;39608;55.630;37.864;2023-02-26T01:06:30;97015.41;;;1.92;71.75
53715;BME280;39608;55.630;37.864;2023-02-26T01:11:35;97042.34;;;1.81;71.84
53715;BME280;39608;55.630;37.864;2023-02-26T01:16:42;97010.19;;;1.73;71.98
53715;BME280;39608;55.630;37.864;2023-02-26T01:21:49;97013.88;;;1.77;72.23
53715;BME280;39608;55.630;37.864;2023-02-26T01:26:54;97013.06;;;1.76;72.31
53715;BME280;39608;55.630;37.864;2023-02-26T01:32:00;96999.69;;;1.76;72.21
53715;BME280;39608;55.630;37.864;2023-02-26T01:37:13;96992.97;;;1.79;72.15
53715;BME280;39608;55.630;37.864;2023-02-26T01:42:24;96985.25;;;1.77;72.40
53715;BME280;39608;55.630;37.864;2023-02-26T01:47:32;96973.56;;;1.73;72.24
53715;BME280;39608;55.630;37.864;2023-02-26T01:53:14;96973.56;;;1.73;72.22
53715;BME280;39608;55.630;37.864;2023-02-26T01:58:19;96951.53;;;1.67;72.65
53715;BME280;39608;55.630;37.864;2023-02-26T02:03:23;96942.81;;;1.62;72.67
53715;BME280;39608;55.630;37.864;2023-02-26T02:08:26;96930.44;;;1.66;72.71
53715;BME280;39608;55.630;37.864;2023-02-26T02:13:37;96949.44;;;1.78;72.66
53715;BME280;39608;55.630;37.864;2023-02-26T02:18:47;96935.00;;;1.79;72.94
53715;BME280;39608;55.630;37.864;2023-02-26T02:23:55;96938.75;;;1.78;72.78
53715;BME280;39608;55.630;37.864;2023-02-26T02:29:31;96947.13;;;1.85;72.85
53715;BME280;39608;55.630;37.864;2023-02-26T02:34:40;96941.09;;;1.80;72.46
53715;BME280;39608;55.630;37.864;2023-02-26T02:39:49;96943.09;;;1.74;72.72
53715;BME280;39608;55.630;37.864;2023-02-26T02:44:56;96930.81;;;1.73;72.50
53715;BME280;39608;55.630;37.864;2023-02-26T02:50:05;96903.84;;;1.61;72.91
53715;BME280;39608;55.630;37.864;2023-02-26T02:55:12;96900.50;;;1.55;73.26
53715;BME280;39608;55.630;37.864;2023-02-26T03:00:18;96898.41;;;1.66;72.52
53715;BME280;39608;55.630;37.864;2023-02-26T03:05:24;96903.44;;;1.67;73.09
53715;BME280;39608;55.630;37.864;2023-02-26T03:10:26;96892.75;;;1.67;72.86
53715;BME280;39608;55.630;37.864;2023-02-26T03:15:34;96892.81;;;1.76;72.85
53715;BME280;39608;55.630;37.864;2023-02-26T03:20:45;96892.09;;;1.84;73.08
53715;BME280;39608;55.630;37.864;2023-02-26T03:25:53;96874.00;;;1.81;73.21
53715;BME280;39608;55.630;37.864;2023-02-26T03:30:59;96891.22;;;1.89;73.09
53715;BME280;39608;55.630;37.864;2023-02-26T03:36:09;96887.63;;;1.94;73.16
53715;BME280;39608;55.630;37.864;2023-02-26T03:41:16;96889.78;;;1.92;72.90
53715;BME280;39608;55.630;37.864;2023-02-26T03:46:25;96900.31;;;1.88;73.13
53715;BME280;39608;55.630;37.864;2023-02-26T03:51:32;96910.50;;;1.86;73.21
53715;BME280;39608;55.630;37.864;2023-02-26T03:56:39;96903.41;;;1.81;72.86
53715;BME280;39608;55.630;37.864;2023-02-26T04:01:46;96915.78;;;1.77;73.15
53715;BME280;39608;55.630;37.864;2023-02-26T04:06:50;96916.88;;;1.76;73.47
53715;BME280;39608;55.630;37.864;2023-02-26T04:11:53;96927.06;;;1.74;73.48
53715;BME280;39608;55.630;37.864;2023-02-26T04:16:57;96922.34;;;1.71;73.37
53715;BME280;39608;55.630;37.864;2023-02-26T04:22:00;96937.25;;;1.72;73.47
53715;BME280;39608;55.630;37.864;2023-02-26T04:27:02;96944.50;;;1.71;73.74
53715;BME280;39608;55.630;37.864;2023-02-26T04:32:04;96957.53;;;1.73;73.70
53715;BME280;39608;55.630;37.864;2023-02-26T04:37:07;96965.78;;;1.77;73.73
53715;BME280;39608;55.630;37.864;2023-02-26T04:42:10;96979.91;;;1.77;73.99
53715;BME280;39608;55.630;37.864;2023-02-26T04:47:12;96984.53;;;1.85;74.41
53715;BME280;39608;55.630;37.864;2023-02-26T04:52:15;97000.97;;;1.93;74.00
53715;BME280;39608;55.630;37.864;2023-02-26T04:57:17;97009.47;;;1.95;74.03
53715;BME280;39608;55.630;37.864;2023-02-26T05:02:19;97008.25;;;2.01;74.51
53715;BME280;39608;55.630;37.864;2023-02-26T05:07:22;97030.72;;;2.14;74.02
53715;BME280;39608;55.630;37.864;2023-02-26T05:12:25;97027.44;;;2.17;74.62
53715;BME280;39608;55.630;37.864;2023-02-26T05:17:28;97052.47;;;2.21;74.52
53715;BME280;39608;55.630;37.864;2023-02-26T05:22:32;97052.38;;;2.26;74.31
53715;BME280;39608;55.630;37.864;2023-02-26T05:27:34;97055.41;;;2.33;74.34
53715;BME280;39608;55.630;37.864;2023-02-26T05:32:36;97080.47;;;2.37;74.68
53715;BME280;39608;55.630;37.864;2023-02-26T05:37:40;97082.25;;;2.42;74.12
53715;BME280;39608;55.630;37.864;2023-02-26T05:42:42;97084.94;;;2.42;74.30
53715;BME280;39608;55.630;37.864;2023-02-26T05:47:44;97095.03;;;2.45;73.59
53715;BME280;39608;55.630;37.864;2023-02-26T05:52:48;97108.78;;;2.52;73.57
53715;BME280;39608;55.630;37.864;2023-02-26T05:57:50;97116.28;;;2.50;73.24
53715;BME280;39608;55.630;37.864;2023-02-26T06:02:52;97131.75;;;2.53;73.45
53715;BME280;39608;55.630;37.864;2023-02-26T06:07:55;97128.38;;;2.62;73.23
53715;BME280;39608;55.630;37.864;2023-02-26T06:12:57;97144.13;;;2.63;73.29
53715;BME280;39608;55.630;37.864;2023-02-26T06:17:59;97144.31;;;2.67;72.57
53715;BME280;39608;55.630;37.864;2023-02-26T06:23:03;97138.75;;;2.77;72.29
53715;BME280;39608;55.630;37.864;2023-02-26T06:28:05;97154.19;;;2.80;71.95
53715;BME280;39608;55.630;37.864;2023-02-26T06:33:07;97147.41;;;2.97;71.98
53715;BME280;39608;55.630;37.864;2023-02-26T06:38:10;97168.88;;;3.05;70.92
53715;BME280;39608;55.630;37.864;2023-02-26T06:43:12;97178.50;;;3.06;71.58
53715;BME280;39608;55.630;37.864;2023-02-26T06:48:14;97192.31;;;3.00;71.03
53715;BME280;39608;55.630;37.864;2023-02-26T06:53:18;97188.66;;;2.96;71.17
53715;BME280;39608;55.630;37.864;2023-02-26T06:58:20;97217.00;;;2.97;71.08
53715;BME280;39608;55.630;37.864;2023-02-26T07:03:23;97212.75;;;2.96;70.79
53715;BME280;39608;55.630;37.864;2023-02-26T07:08:27;97227.22;;;2.95;71.25
53715;BME280;39608;55.630;37.864;2023-02-26T07:13:28;97217.28;;;2.95;70.77
53715;BME280;39608;55.630;37.864;2023-02-26T07:18:30;97234.94;;;2.96;70.48
53715;BME280;39608;55.630;37.864;2023-02-26T07:23:34;97232.25;;;2.96;69.95
53715;BME280;39608;55.630;37.864;2023-02-26T07:28:36;97239.63;;;2.90;70.09
53715;BME280;39608;55.630;37.864;2023-02-26T07:33:38;97246.56;;;2.91;70.29
53715;BME280;39608;55.630;37.864;2023-02-26T07:38:41;97253.00;;;2.90;69.59
53715;BME280;39608;55.630;37.864;2023-02-26T07:43:43;97257.75;;;2.94;69.54
53715;BME280;39608;55.630;37.864;2023-02-26T07:48:46;97248.63;;;2.95;70.12
53715;BME280;39608;55.630;37.864;2023-02-26T07:53:49;97265.06;;;3.02;69.30
53715;BME280;39608;55.630;37.864;2023-02-26T07:58:52;97264.88;;;3.12;69.46
53715;BME280;39608;55.630;37.864;2023-02-26T08:03:54;97279.13;;;3.21;69.41
53715;BME280;39608;55.630;37.864;2023-02-26T08:08:57;97270.63;;;3.42;68.29
53715;BME280;39608;55.630;37.864;2023-02-26T08:13:59;97286.81;;;3.59;68.41
53715;BME280;39608;55.630;37.864;2023-02-26T08:19:01;97282.56;;;3.58;67.65
53715;BME280;39608;55.630;37.864;2023-02-26T08:24:05;97289.84;;;3.44;67.87
53715;BME280;39608;55.630;37.864;2023-02-26T08:29:07;97298.75;;;3.31;67.59
53715;BME280;39608;55.630;37.864;2023-02-26T08:34:09;97309.56;;;3.25;68.23
53715;BME280;39608;55.630;37.864;2023-02-26T08:39:13;97329.22;;;3.21;68.07
53715;BME280;39608;55.630;37.864;2023-02-26T08:44:17;97339.16;;;3.06;69.40
53715;BME280;39608;55.630;37.864;2023-02-26T08:49:19;97334.38;;;3.17;68.72
53715;BME280;39608;55.630;37.864;2023-02-26T08:54:22;97346.75;;;3.64;67.45
53715;BME280;39608;55.630;37.864;2023-02-26T08:59:24;97358.63;;;3.85;66.81
53715;BME280;39608;55.630;37.864;2023-02-26T09:04:26;97370.25;;;4.26;65.02
53715;BME280;39608;55.630;37.864;2023-02-26T09:09:30;97387.19;;;4.13;63.87
53715;BME280;39608;55.630;37.864;2023-02-26T09:14:32;97391.41;;;3.82;64.19
53715;BME280;39608;55.630;37.864;2023-02-26T09:19:43;97394.63;;;3.56;63.29
53715;BME280;39608;55.630;37.864;2023-02-26T09:24:46;97393.47;;;3.49;64.27
53715;BME280;39608;55.630;37.864;2023-02-26T09:29:49;97413.09;;;3.44;64.10
53715;BME280;39608;55.630;37.864;2023-02-26T09:34:51;97403.97;;;3.45;63.96
53715;BME280;39608;55.630;37.864;2023-02-26T09:39:55;97426.13;;;3.37;64.39
53715;BME280;39608;55.630;37.864;2023-02-26T09:44:57;97421.06;;;3.21;63.80
53715;BME280;39608;55.630;37.864;2023-02-26T09:50:02;97430.09;;;3.25;63.61
53715;BME280;39608;55.630;37.864;2023-02-26T09:55:11;97435.84;;;3.33;63.26
53715;BME280;39608;55.630;37.864;2023-02-26T10:00:22;97443.09;;;3.46;63.30
53715;BME280;39608;55.630;37.864;2023-02-26T10:05:34;97452.13;;;3.50;62.54
53715;BME280;39608;55.630;37.864;2023-02-26T10:10:48;97463.16;;;3.49;61.06
53715;BME280;39608;55.630;37.864;2023-02-26T10:15:52;97447.84;;;3.49;61.36
53715;BME280;39608;55.630;37.864;2023-02-26T10:21:00;97466.13;;;3.61;60.37
53715;BME280;39608;55.630;37.864;2023-02-26T10:26:11;97459.75;;;3.71;59.92
53715;BME280;39608;55.630;37.864;2023-02-26T10:31:23;97488.25;;;3.67;59.90
53715;BME280;39608;55.630;37.864;2023-02-26T10:36:28;97475.03;;;3.70;59.29
53715;BME280;39608;55.630;37.864;2023-02-26T10:41:35;97491.28;;;4.02;58.60
53715;BME280;39608;55.630;37.864;2023-02-26T10:46:44;97468.81;;;3.98;57.48
53715;BME280;39608;55.630;37.864;2023-02-26T10:51:49;97493.28;;;3.96;56.97
53715;BME280;39608;55.630;37.864;2023-02-26T10:56:53;97499.41;;;3.97;57.40
53715;BME280;39608;55.630;37.864;2023-02-26T11:01:56;97494.06;;;3.97;56.60
53715;BME280;39608;55.630;37.864;2023-02-26T11:07:02;97496.53;;;3.93;56.62
53715;BME280;39608;55.630;37.864;2023-02-26T11:12:12;97495.66;;;3.98;56.93
53715;BME280;39608;55.630;37.864;2023-02-26T11:17:17;97491.38;;;3.97;57.38
53715;BME280;39608;55.630;37.864;2023-02-26T11:22:20;97499.31;;;4.02;57.50
53715;BME280;39608;55.630;37.864;2023-02-26T11:27:30;97506.75;;;4.05;57.37
53715;BME280;39608;55.630;37.864;2023-02-26T11:32:34;97508.06;;;3.93;58.22
53715;BME280;39608;55.630;37.864;2023-02-26T11:37:38;97502.03;;;3.88;57.69
53715;BME280;39608;55.630;37.864;2023-02-26T11:42:44;97520.47;;;3.89;58.15
53715;BME280;39608;55.630;37.864;2023-02-26T11:47:58;97501.88;;;4.07;57.85
53715;BME280;39608;55.630;37.864;2023-02-26T11:53:04;97521.84;;;4.15;57.95
53715;BME280;39608;55.630;37.864;2023-02-26T11:58:17;97525.81;;;4.17;58.66
53715;BME280;39608;55.630;37.864;2023-02-26T12:03:21;97534.97;;;4.02;58.15
53715;BME280;39608;55.630;37.864;2023-02-26T12:08:29;97525.44;;;3.96;58.65
53715;BME280;39608;55.630;37.864;2023-02-26T12:13:37;97532.19;;;3.93;58.55
53715;BME280;39608;55.630;37.864;2023-02-26T12:18:57;97537.03;;;4.05;58.60
53715;BME280;39608;55.630;37.864;2023-02-26T12:29:54;97521.50;;;4.30;57.57
53715;BME280;39608;55.630;37.864;2023-02-26T12:35:22;97507.13;;;4.12;57.96
53715;BME280;39608;55.630;37.864;2023-02-26T12:40:47;97524.63;;;4.09;58.07
53715;BME280;39608;55.630;37.864;2023-02-26T12:46:07;97540.13;;;3.99;58.19
53715;BME280;39608;55.630;37.864;2023-02-26T12:51:24;97545.09;;;3.91;59.05
53715;BME280;39608;55.630;37.864;2023-02-26T12:56:48;97567.16;;;3.88;57.72
53715;BME280;39608;55.630;37.864;2023-02-26T13:02:08;97615.00;;;3.53;60.00
53715;BME280;39608;55.630;37.864;2023-02-26T13:07:42;97621.88;;;2.74;60.81
53715;BME280;39608;55.630;37.864;2023-02-26T13:12:53;97641.59;;;2.21;62.53
53715;BME280;39608;55.630;37.864;2023-02-26T13:18:05;97638.94;;;1.97;63.24
53715;BME280;39608;55.630;37.864;2023-02-26T13:23:14;97610.59;;;1.72;63.85
53715;BME280;39608;55.630;37.864;2023-02-26T13:28:23;97636.16;;;1.83;64.01
53715;BME280;39608;55.630;37.864;2023-02-26T13:33:31;97631.00;;;1.87;64.29
53715;BME280;39608;55.630;37.864;2023-02-26T13:38:42;97644.09;;;1.88;64.19
53715;BME280;39608;55.630;37.864;2023-02-26T13:43:59;97652.91;;;1.89;64.31
53715;BME280;39608;55.630;37.864;2023-02-26T13:49:10;97654.28;;;1.86;65.33
53715;BME280;39608;55.630;37.864;2023-02-26T13:54:41;97666.81;;;1.86;64.64
53715;BME280;39608;55.630;37.864;2023-02-26T13:59:52;97653.69;;;1.65;65.01
53715;BME280;39608;55.630;37.864;2023-02-26T14:04:58;97689.75;;;1.68;65.39
53715;BME280;39608;55.630;37.864;2023-02-26T14:10:14;97707.47;;;1.53;65.77
53715;BME280;39608;55.630;37.864;2023-02-26T14:15:38;97705.50;;;1.35;66.21
53715;BME280;39608;55.630;37.864;2023-02-26T14:20:42;97703.44;;;1.27;66.65
53715;BME280;39608;55.630;37.864;2023-02-26T14:25:47;97701.31;;;1.24;66.07
53715;BME280;39608;55.630;37.864;2023-02-26T14:30:52;97716.59;;;1.13;66.36
53715;BME280;39608;55.630;37.864;2023-02-26T14:36:03;97741.16;;;1.15;66.27
53715;BME280;39608;55.630;37.864;2023-02-26T14:41:11;97745.75;;;1.04;66.37
53715;BME280;39608;55.630;37.864;2023-02-26T14:46:20;97764.47;;;0.99;65.73
53715;BME280;39608;55.630;37.864;2023-02-26T14:51:32;97758.91;;;0.90;65.18
53715;BME280;39608;55.630;37.864;2023-02-26T14:56:53;97773.31;;;0.89;63.44
53715;BME280;39608;55.630;37.864;2023-02-26T15:02:08;97786.72;;;0.84;63.54
53715;BME280;39608;55.630;37.864;2023-02-26T15:07:29;97773.38;;;0.74;62.11
53715;BME280;39608;55.630;37.864;2023-02-26T15:12:44;97814.75;;;0.71;62.06
53715;BME280;39608;55.630;37.864;2023-02-26T15:18:11;97819.03;;;0.72;62.22
53715;BME280;39608;55.630;37.864;2023-02-26T15:23:30;97835.03;;;0.72;61.26
53715;BME280;39608;55.630;37.864;2023-02-26T15:28:38;97844.66;;;0.63;61.56
53715;BME280;39608;55.630;37.864;2023-02-26T15:33:41;97857.47;;;0.61;61.02
53715;BME280;39608;55.630;37.864;2023-02-26T15:38:48;97851.34;;;0.55;61.24
53715;BME280;39608;55.630;37.864;2023-02-26T15:43:52;97883.63;;;0.43;60.01
53715;BME280;39608;55.630;37.864;2023-02-26T15:48:59;97880.97;;;0.48;60.16
53715;BME280;39608;55.630;37.864;2023-02-26T15:54:03;97904.44;;;0.46;59.93
53715;BME280;39608;55.630;37.864;2023-02-26T15:59:09;97897.50;;;0.45;60.39
53715;BME280;39608;55.630;37.864;2023-02-26T16:04:15;97906.31;;;0.41;59.90
53715;BME280;39608;55.630;37.864;2023-02-26T16:09:24;97909.22;;;0.39;60.52
53715;BME280;39608;55.630;37.864;2023-02-26T16:14:29;97895.91;;;0.34;60.05
53715;BME280;39608;55.630;37.864;2023-02-26T16:19:35;97919.66;;;0.36;60.65
53715;BME280;39608;55.630;37.864;2023-02-26T16:24:40;97923.38;;;0.29;59.78
53715;BME280;39608;55.630;37.864;2023-02-26T16:29:46;97924.44;;;0.18;60.05
53715;BME280;39608;55.630;37.864;2023-02-26T16:34:51;97932.72;;;0.11;59.85
53715;BME280;39608;55.630;37.864;2023-02-26T16:40:03;97936.41;;;0.05;59.96
53715;BME280;39608;55.630;37.864;2023-02-26T16:45:18;97950.84;;;0.14;60.39
53715;BME280;39608;55.630;37.864;2023-02-26T16:50:24;97966.28;;;0.12;60.55
53715;BME280;39608;55.630;37.864;2023-02-26T16:55:30;97969.50;;;0.14;60.53
53715;BME280;39608;55.630;37.864;2023-02-26T17:00:34;97985.50;;;0.14;60.28
53715;BME280;39608;55.630;37.864;2023-02-26T17:05:41;97988.16;;;0.14;60.21
53715;BME280;39608;55.630;37.864;2023-02-26T17:10:47;98003.88;;;0.16;60.07
53715;BME280;39608;55.630;37.864;2023-02-26T17:15:51;97994.00;;;0.11;59.53
53715;BME280;39608;55.630;37.864;2023-02-26T17:20:54;98016.91;;;0.12;59.61
53715;BME280;39608;55.630;37.864;2023-02-26T17:25:59;98021.16;;;0.08;59.45
53715;BME280;39608;55.630;37.864;2023-02-26T17:31:03;98025.72;;;0.08;59.55
53715;BME280;39608;55.630;37.864;2023-02-26T17:36:05;98055.31;;;0.06;59.23
53715;BME280;39608;55.630;37.864;2023-02-26T17:41:15;98053.94;;;-0.07;59.48
53715;BME280;39608;55.630;37.864;2023-02-26T17:46:17;98068.56;;;-0.09;59.57
53715;BME280;39608;55.630;37.864;2023-02-26T17:51:19;98084.00;;;-0.16;59.97
53715;BME280;39608;55.630;37.864;2023-02-26T17:56:25;98043.94;;;-0.37;59.66
53715;BME280;39608;55.630;37.864;2023-02-26T18:01:27;98080.72;;;-0.34;60.02
53715;BME280;39608;55.630;37.864;2023-02-26T18:06:32;98102.06;;;-0.29;59.36
53715;BME280;39608;55.630;37.864;2023-02-26T18:11:39;98103.63;;;-0.33;60.04
53715;BME280;39608;55.630;37.864;2023-02-26T18:16:42;98110.75;;;-0.44;59.55
53715;BME280;39608;55.630;37.864;2023-02-26T18:21:47;98120.53;;;-0.55;60.54
53715;BME280;39608;55.630;37.864;2023-02-26T18:26:51;98130.91;;;-0.58;59.86
53715;BME280;39608;55.630;37.864;2023-02-26T18:31:53;98125.31;;;-0.57;59.40
53715;BME280;39608;55.630;37.864;2023-02-26T18:36:55;98138.38;;;-0.55;59.13
53715;BME280;39608;55.630;37.864;2023-02-26T18:41:58;98148.78;;;-0.54;59.09
53715;BME280;39608;55.630;37.864;2023-02-26T18:47:01;98140.19;;;-0.61;58.95
53715;BME280;39608;55.630;37.864;2023-02-26T18:52:06;98164.16;;;-0.61;59.06
53715;BME280;39608;55.630;37.864;2023-02-26T18:57:11;98167.84;;;-0.67;58.40
53715;BME280;39608;55.630;37.864;2023-02-26T19:02:14;98165.44;;;-0.68;58.35
53715;BME280;39608;55.630;37.864;2023-02-26T19:07:16;98180.84;;;-0.71;58.24
53715;BME280;39608;55.630;37.864;2023-02-26T19:12:21;98178.47;;;-0.72;58.28
53715;BME280;39608;55.630;37.864;2023-02-26T19:17:23;98199.25;;;-0.69;58.55
53715;BME280;39608;55.630;37.864;2023-02-26T19:22:26;98194.44;;;-0.72;58.47
53715;BME280;39608;55.630;37.864;2023-02-26T19:27:29;98217.03;;;-0.75;57.85
53715;BME280;39608;55.630;37.864;2023-02-26T19:32:32;98222.28;;;-0.80;57.64
53715;BME280;39608;55.630;37.864;2023-02-26T19:37:34;98247.06;;;-0.79;58.70
53715;BME280;39608;55.630;37.864;2023-02-26T19:42:37;98246.97;;;-0.90;58.08
53715;BME280;39608;55.630;37.864;2023-02-26T19:47:40;98238.94;;;-0.95;57.87
53715;BME280;39608;55.630;37.864;2023-02-26T19:52:42;98256.97;;;-1.02;58.39
53715;BME280;39608;55.630;37.864;2023-02-26T19:57:45;98269.75;;;-0.99;58.79
53715;BME280;39608;55.630;37.864;2023-02-26T20:02:48;98271.16;;;-0.91;58.60
53715;BME280;39608;55.630;37.864;2023-02-26T20:07:50;98276.47;;;-0.91;58.72
53715;BME280;39608;55.630;37.864;2023-02-26T20:12:54;98286.88;;;-0.90;58.69
53715;BME280;39608;55.630;37.864;2023-02-26T20:17:57;98300.88;;;-0.99;58.69
53715;BME280;39608;55.630;37.864;2023-02-26T20:23:00;98308.06;;;-1.00;59.23
53715;BME280;39608;55.630;37.864;2023-02-26T20:28:04;98299.03;;;-0.99;59.69
53715;BME280;39608;55.630;37.864;2023-02-26T20:33:06;98312.00;;;-1.02;59.10
53715;BME280;39608;55.630;37.864;2023-02-26T20:38:08;98313.97;;;-0.98;59.80
53715;BME280;39608;55.630;37.864;2023-02-26T20:43:12;98323.28;;;-0.95;59.28
53715;BME280;39608;55.630;37.864;2023-02-26T20:48:14;98323.66;;;-1.09;59.84
53715;BME280;39608;55.630;37.864;2023-02-26T20:53:16;98347.72;;;-1.21;60.07
53715;BME280;39608;55.630;37.864;2023-02-26T20:58:19;98364.16;;;-1.24;61.19
53715;BME280;39608;55.630;37.864;2023-02-26T21:03:21;98366.75;;;-1.29;61.15
53715;BME280;39608;55.630;37.864;2023-02-26T21:08:24;98372.81;;;-1.33;60.91
53715;BME280;39608;55.630;37.864;2023-02-26T21:13:27;98387.72;;;-1.32;61.04
53715;BME280;39608;55.630;37.864;2023-02-26T21:18:29;98394.09;;;-1.33;61.01
53715;BME280;39608;55.630;37.864;2023-02-26T21:23:33;98395.97;;;-1.34;61.45
53715;BME280;39608;55.630;37.864;2023-02-26T21:28:36;98401.56;;;-1.30;61.00
53715;BME280;39608;55.630;37.864;2023-02-26T21:33:39;98423.72;;;-1.25;61.49
53715;BME280;39608;55.630;37.864;2023-02-26T21:38:41;98422.19;;;-1.21;61.00
53715;BME280;39608;55.630;37.864;2023-02-26T21:43:44;98433.00;;;-1.10;60.98
53715;BME280;39608;55.630;37.864;2023-02-26T21:48:47;98442.03;;;-1.11;60.98
53715;BME280;39608;55.630;37.864;2023-02-26T21:53:51;98450.00;;;-1.11;60.25
53715;BME280;39608;55.630;37.864;2023-02-26T21:58:54;98450.50;;;-1.14;60.44
53715;BME280;39608;55.630;37.864;2023-02-26T22:03:56;98476.28;;;-1.15;60.65
53715;BME280;39608;55.630;37.864;2023-02-26T22:08:58;98470.41;;;-1.17;59.81
53715;BME280;39608;55.630;37.864;2023-02-26T22:14:01;98489.03;;;-1.17;59.72
53715;BME280;39608;55.630;37.864;2023-02-26T22:19:03;98500.00;;;-1.13;60.00
53715;BME280;39608;55.630;37.864;2023-02-26T22:24:06;98505.78;;;-1.16;60.05
53715;BME280;39608;55.630;37.864;2023-02-26T22:29:10;98522.25;;;-1.19;59.87
53715;BME280;39608;55.630;37.864;2023-02-26T22:34:12;98514.00;;;-1.18;59.86
53715;BME280;39608;55.630;37.864;2023-02-26T22:39:14;98533.47;;;-1.17;59.81
53715;BME280;39608;55.630;37.864;2023-02-26T22:44:18;98541.34;;;-1.23;59.34
53715;BME280;39608;55.630;37.864;2023-02-26T22:49:20;98556.41;;;-1.28;59.89
53715;BME280;39608;55.630;37.864;2023-02-26T22:54:22;98561.75;;;-1.28;60.21
53715;BME280;39608;55.630;37.864;2023-02-26T22:59:25;98595.03;;;-1.26;59.43
53715;BME280;39608;55.630;37.864;2023-02-26T23:04:27;98582.19;;;-1.29;59.22
53715;BME280;39608;55.630;37.864;2023-02-26T23:09:29;98518.06;;;-1.78;59.27
53715;BME280;39608;55.630;37.864;2023-02-26T23:14:33;98613.81;;;-1.32;60.21
53715;BME280;39608;55.630;37.864;2023-02-26T23:19:35;98624.91;;;-1.35;59.31
53715;BME280;39608;55.630;37.864;2023-02-26T23:24:37;98622.50;;;-1.37;59.82
53715;BME280;39608;55.630;37.864;2023-02-26T23:29:42;98637.63;;;-1.38;59.99
53715;BME280;39608;55.630;37.864;2023-02-26T23:34:45;98643.78;;;-1.37;59.80
53715;BME280;39608;55.630;37.864;2023-02-26T23:39:47;98659.72;;;-1.37;59.88
53715;BME280;39608;55.630;37.864;2023-02-26T23:44:50;98666.41;;;-1.34;59.59
53715;BME280;39608;55.630;37.864;2023-02-26T23:49:52;98658.84;;;-1.43;59.36
53715;BME280;39608;55.630;37.864;2023-02-26T23:54:54;98676.63;;;-1.43;60.09
53715;BME280;39608;55.630;37.864;2023-02-26T23:59:58;98677.66;;;-1.44;59.75
